< < Back
Terminal Aerodrome Forecast


Current Version              Previous Versions:   1  2  3  4  5  6  7  8  9  

Terminal Aerodrome Forecast

066
FTUS42 KFFC 292329
TAFMCN
TAF
KMCN 292329Z 3000/3024 19007KT P6SM SCT120
     FM300300 21007KT P6SM BKN050
     FM300500 26009KT P6SM VCSH BKN025 OVC080
     FM300800 30013G18KT P6SM OVC025
     FM301300 32012G17KT P6SM SCT035
     FM301600 32014G23KT P6SM SCT150=

Latest METAR

242
SAUS80 KWBC 302100 RRC
MTRMCN
METAR KMCN 302053Z 33012G17KT 10SM CLR 13/M06 A3023 RMK AO2 SLP236
T01281056 56011


USA.gov is the U.S. government's official web portal to all federal, state and local government web resources and services.